Norsul Tubarao — 3FJV6 — position and weather

sailwx.info

Track history (hours):
 
Tides and Currents Weather Stations Pressure Air Temp Water Temp Dewpoint Dewpoint Depression Visibility Wind Speed Wind Dir Waves Ship Positions

Norsul Tubarao

Last reported at 2016-Jun-24 19:33 UTC. Time now 2016-Jul-01 02:43 UTC.
Position N 36°06' E 125°34'.

Length 175 m; draft 7.3 m.

Type: Cargo ship. MMSI: 373182000.

Date/timePositionNaut miles runAvg speedWind from/ knotsBaromVisibWave heightAir tempDewpointWater temp
2016-Jun-24 19:33N 36°06' E 125°34'33913.0
2016-Jun-23 17:26N 30°27' E 125°45'  
2016-Jun-17 03:23N 01°15' E 104°07'1012.6
2016-Jun-17 02:33N 01°14' E 103°57'9 9.0
2016-Jun-17 01:33N 01°11' E 103°49'6 5.6
2016-Jun-17 00:33N 01°07' E 103°44'65 9.3
2016-Jun-16 17:33N 01°38' E 102°47'1110.7
2016-Jun-16 16:31N 01°43' E 102°37'1010.4
2016-Jun-16 15:33N 01°47' E 102°28'1110.8
2016-Jun-16 14:32N 01°51' E 102°18'  
Track history (hours):
 
Tides and Currents Weather Stations Pressure Air Temp Water Temp Dewpoint Dewpoint Depression Visibility Wind Speed Wind Dir Waves Ship Positions

Norsul Tubarao

Last reported at 2016-Jun-24 19:33 UTC. Time now 2016-Jul-01 02:43 UTC.
Position N 36°06' E 125°34'.

Length 175 m; draft 7.3 m.

Type: Cargo ship. MMSI: 373182000.

Date/timePositionNaut miles runAvg speedWind from/ knotsBaromVisibWave heightAir tempDewpointWater temp
2016-Jun-24 19:33N 36°06' E 125°34'33913.0
2016-Jun-23 17:26N 30°27' E 125°45'  
2016-Jun-17 03:23N 01°15' E 104°07'1012.6
2016-Jun-17 02:33N 01°14' E 103°57'9 9.0
2016-Jun-17 01:33N 01°11' E 103°49'6 5.6
2016-Jun-17 00:33N 01°07' E 103°44'65 9.3
2016-Jun-16 17:33N 01°38' E 102°47'1110.7
2016-Jun-16 16:31N 01°43' E 102°37'1010.4
2016-Jun-16 15:33N 01°47' E 102°28'1110.8
2016-Jun-16 14:32N 01°51' E 102°18'  

Dump ship's entire track history